Strona główna
METAR-TAF:

METAR-TAF

Lotnisko :

Dole, Francja

Szerokość geograficzna: 47-02-34N, Długość geograficzna: 005-26-06E, wysokość: 196 m

Aktualna obserwacja pogody

Raport powstał 33 minut temu, godzina 11:30 UTC
Wiatr 15 kt od południowo-południowy zachód
Temperatura 14°C
Wilgotność 67%
Ciśnienie 1007 hPa
Widzialność 10 km lub więcej
Brak chmur poniżej 1500 m i brak chmur cumulonimbus

METAR: LFGJ 161130Z AUTO 20015KT CAVOK 14/08 Q1007 TEMPO 21020G30KT

czas: 13:03 (12:03 UTC)

Prognoza

Raport powstał 1 godzina i 3 minut temu, godzina 11:00 UTC
Prognoza ważna od 16 godzina 12 UTC do 16 godzina 21 UTC
Wiatr 15 kt od południowo-południowy zachód
Widzialność 10 km lub więcej
Brak chmur poniżej 1500 m i brak chmur cumulonimbus
Przejściowo
od 16 godzina 12 UTC do 16 godzina 18 UTC
Wiatr 20 kt od południowo-południowy zachód w porywach dochodzący do 30 kt

TAF: LFGJ 161100Z 1612/1621 20015KT CAVOK TEMPO 1612/1618 21020G30KT

Obserwacja i prognoza pogody dla ponad 4000 lotnisk (raport METAR i TAF).

Dostępne stacje oznaczono żółtymi i czerwonymi punktami na mapie.

Najedź kursorem aby zobaczyć nazwę stacji.

Kliknij aby zobaczyć obserwacje i prognozy pogody.

Aby zmienić mapę: kliknij na zielony przycisk z czarnym krzyżykiem, aby powiększyć; na zielony przycisk z myślnikiem, aby pomniejszyć; na zielone strzałki, aby przejść do map sąsiednich.


METAR-TAF: